createdAt,value
2023-04-17T00:00:17.047Z,101403.28
2023-04-17T00:02:45.312Z,101408.56
2023-04-17T00:05:12.348Z,101406.22
2023-04-17T00:07:39.202Z,101400.03
2023-04-17T00:10:10.091Z,101409.94
2023-04-17T00:12:36.992Z,101406.22
2023-04-17T00:15:04.584Z,101404.25
2023-04-17T00:17:32.434Z,101411.25
2023-04-17T00:19:59.217Z,101421.59
2023-04-17T00:22:26.220Z,101410.19
2023-04-17T00:24:52.974Z,101417.28
2023-04-17T00:27:20.010Z,101413.84
2023-04-17T00:29:46.828Z,101413.22
2023-04-17T00:32:14.197Z,101409.28
2023-04-17T00:34:41.175Z,101411.50
2023-04-17T00:37:08.263Z,101416.59
2023-04-17T00:39:35.102Z,101411.50
2023-04-17T00:42:02.875Z,101413.53
2023-04-17T00:44:30.105Z,101416.03
2023-04-17T00:46:57.069Z,101410.06
2023-04-17T00:49:24.261Z,101421.69
2023-04-17T00:51:51.245Z,101426.16
2023-04-17T00:54:19.353Z,101416.75
2023-04-17T00:56:46.597Z,101418.06
2023-04-17T00:59:17.295Z,101411.94
2023-04-17T01:01:44.509Z,101413.63
2023-04-17T01:04:12.275Z,101418.28
2023-04-17T01:06:39.293Z,101421.56
2023-04-17T01:09:06.620Z,101420.59
2023-04-17T01:11:33.642Z,101419.69
2023-04-17T01:14:00.517Z,101417.09
2023-04-17T01:16:30.520Z,101416.97
2023-04-17T01:18:57.348Z,101418.19
2023-04-17T01:21:25.845Z,101422.84
2023-04-17T01:23:53.410Z,101415.66
2023-04-17T01:26:23.226Z,101416.56
2023-04-17T01:28:58.248Z,101408.00
2023-04-17T01:31:26.310Z,101417.88
2023-04-17T01:33:54.310Z,101414.41
2023-04-17T01:36:21.777Z,101414.97
2023-04-17T01:38:48.826Z,101414.19
2023-04-17T01:41:15.636Z,101417.69
2023-04-17T01:43:44.256Z,101419.28
2023-04-17T01:46:11.681Z,101424.06
2023-04-17T01:48:38.646Z,101416.53
2023-04-17T01:51:05.916Z,101421.84
2023-04-17T01:53:33.343Z,101418.56
2023-04-17T01:56:02.046Z,101418.84
2023-04-17T01:58:30.284Z,101421.13
2023-04-17T02:00:57.426Z,101425.66
2023-04-17T02:03:27.289Z,101422.81
2023-04-17T02:05:54.329Z,101431.66
2023-04-17T02:08:21.287Z,101425.34
2023-04-17T02:10:48.116Z,101426.25
2023-04-17T02:13:15.590Z,101426.44
2023-04-17T02:15:42.980Z,101424.06
2023-04-17T02:18:10.010Z,101433.75
2023-04-17T02:20:37.467Z,101436.03
2023-04-17T02:23:05.975Z,101435.03
2023-04-17T02:25:33.703Z,101435.16
2023-04-17T02:28:00.905Z,101439.34
2023-04-17T02:30:27.941Z,101436.94
2023-04-17T02:32:56.867Z,101439.47
2023-04-17T02:35:26.329Z,101442.13
2023-04-17T02:37:53.359Z,101439.59
2023-04-17T02:40:22.907Z,101435.81
2023-04-17T02:42:53.980Z,101443.56
2023-04-17T02:45:20.828Z,101436.66
2023-04-17T02:47:48.355Z,101433.00
2023-04-17T02:50:15.753Z,101441.06
2023-04-17T02:53:03.809Z,101438.59
2023-04-17T02:55:30.790Z,101439.13
2023-04-17T02:57:57.637Z,101434.13
2023-04-17T03:00:24.603Z,101442.75
2023-04-17T03:02:51.592Z,101442.03
2023-04-17T03:05:23.490Z,101444.59
2023-04-17T03:07:52.281Z,101439.13
2023-04-17T03:10:19.440Z,101443.50
2023-04-17T03:12:46.946Z,101443.28
2023-04-17T03:15:14.674Z,101442.75
2023-04-17T03:17:42.216Z,101450.00
2023-04-17T03:20:09.492Z,101450.41
2023-04-17T03:22:36.850Z,101447.47
2023-04-17T03:25:06.115Z,101450.25
2023-04-17T03:27:41.341Z,101448.09
2023-04-17T03:30:09.368Z,101452.28
2023-04-17T03:32:38.333Z,101453.13
2023-04-17T03:35:05.658Z,101458.13
2023-04-17T03:37:33.934Z,101461.66
2023-04-17T03:40:01.397Z,101471.31
2023-04-17T03:42:28.525Z,101468.72
2023-04-17T03:44:56.293Z,101467.94
2023-04-17T03:47:24.472Z,101468.00
2023-04-17T03:49:51.268Z,101468.72
2023-04-17T03:52:18.665Z,101467.78
2023-04-17T03:54:49.286Z,101473.34
2023-04-17T03:57:16.158Z,101485.63
2023-04-17T03:59:43.637Z,101484.50
2023-04-17T04:02:10.526Z,101478.16
2023-04-17T04:04:37.618Z,101484.50
2023-04-17T04:07:09.751Z,101488.22
2023-04-17T04:09:36.813Z,101495.28
2023-04-17T04:12:05.389Z,101496.31
2023-04-17T04:14:41.143Z,101496.72
2023-04-17T04:17:09.141Z,101497.75
2023-04-17T04:19:36.120Z,101500.25
2023-04-17T04:22:06.632Z,101505.81
2023-04-17T04:24:40.968Z,101511.09
2023-04-17T04:27:08.149Z,101505.75
2023-04-17T04:29:37.902Z,101507.44
2023-04-17T04:32:09.870Z,101508.91
2023-04-17T04:34:44.857Z,101508.84
2023-04-17T04:37:15.886Z,101503.69
2023-04-17T04:39:47.709Z,101510.03
2023-04-17T04:42:23.098Z,101507.38
2023-04-17T04:45:00.287Z,101509.97
2023-04-17T04:47:29.625Z,101514.41
2023-04-17T04:49:57.187Z,101504.53
2023-04-17T04:52:24.972Z,101508.72
2023-04-17T04:54:55.040Z,101515.03
2023-04-17T04:57:22.186Z,101521.16
2023-04-17T04:59:52.791Z,101512.66
2023-04-17T05:02:28.731Z,101511.09
2023-04-17T05:04:55.732Z,101519.06
2023-04-17T05:07:23.078Z,101526.13
2023-04-17T05:09:50.514Z,101527.81
2023-04-17T05:12:17.404Z,101528.16
2023-04-17T05:14:45.214Z,101526.38
2023-04-17T05:17:13.056Z,101540.72
2023-04-17T05:19:39.875Z,101534.59
2023-04-17T05:22:09.270Z,101531.00
2023-04-17T05:24:44.606Z,101537.75
2023-04-17T05:27:11.629Z,101538.28
2023-04-17T05:29:38.528Z,101538.81
2023-04-17T05:32:06.012Z,101543.97
2023-04-17T05:34:51.689Z,101551.75
2023-04-17T05:37:22.821Z,101541.25
2023-04-17T05:39:49.587Z,101553.53
2023-04-17T05:42:16.359Z,101550.88
2023-04-17T05:44:43.145Z,101556.97
2023-04-17T05:47:09.927Z,101561.22
2023-04-17T05:49:37.091Z,101560.22
2023-04-17T05:52:04.033Z,101559.16
2023-04-17T05:54:31.009Z,101561.91
2023-04-17T05:56:58.647Z,101563.81
2023-04-17T05:59:25.859Z,101558.59
2023-04-17T06:01:53.259Z,101567.25
2023-04-17T06:04:22.126Z,101571.63
2023-04-17T06:06:50.347Z,101561.63
2023-04-17T06:09:17.333Z,101567.75
2023-04-17T06:11:44.175Z,101569.53
2023-04-17T06:14:11.102Z,101576.44
2023-04-17T06:16:38.770Z,101566.13
2023-04-17T06:19:05.744Z,101574.72
2023-04-17T06:21:32.933Z,101572.59
2023-04-17T06:24:00.768Z,101578.69
2023-04-17T06:26:27.625Z,101584.09
2023-04-17T06:28:55.052Z,101591.00
2023-04-17T06:31:23.417Z,101587.44
2023-04-17T06:33:51.069Z,101587.75
2023-04-17T06:36:20.998Z,101585.38
2023-04-17T06:38:53.655Z,101586.78
2023-04-17T06:41:25.644Z,101589.16
2023-04-17T06:43:53.939Z,101586.38
2023-04-17T06:46:22.444Z,101590.09
2023-04-17T06:48:52.493Z,101593.47
2023-04-17T06:51:21.960Z,101593.63
2023-04-17T06:53:48.810Z,101597.72
2023-04-17T06:56:15.751Z,101596.78
2023-04-17T06:58:45.812Z,101599.41
2023-04-17T07:01:13.659Z,101604.53
2023-04-17T07:03:41.524Z,101605.25
2023-04-17T07:06:09.001Z,101607.06
2023-04-17T07:08:35.835Z,101608.91
2023-04-17T07:11:02.866Z,101619.59
2023-04-17T07:13:33.293Z,101615.09
2023-04-17T07:16:01.766Z,101617.63
2023-04-17T07:18:29.813Z,101615.94
2023-04-17T07:20:57.019Z,101624.53
2023-04-17T07:23:23.904Z,101622.72
2023-04-17T07:25:50.824Z,101618.91
2023-04-17T07:28:18.152Z,101620.28
2023-04-17T07:30:45.095Z,101620.34
2023-04-17T07:33:12.470Z,101627.19
2023-04-17T07:35:39.488Z,101626.91
2023-04-17T07:38:06.306Z,101628.28
2023-04-17T07:40:35.971Z,101626.06
2023-04-17T07:43:02.797Z,101629.63
2023-04-17T07:45:29.782Z,101634.88
2023-04-17T07:47:56.606Z,101636.34
2023-04-17T07:50:23.923Z,101647.50
2023-04-17T07:52:50.818Z,101642.78
2023-04-17T07:55:17.626Z,101641.72
2023-04-17T07:57:46.816Z,101640.75
2023-04-17T08:00:14.904Z,101640.53
2023-04-17T08:02:43.000Z,101645.84
2023-04-17T08:05:10.444Z,101643.56
2023-04-17T08:07:37.690Z,101647.06
2023-04-17T08:10:05.194Z,101642.41
2023-04-17T08:12:32.177Z,101643.94
2023-04-17T08:14:58.954Z,101644.03
2023-04-17T08:17:26.421Z,101651.97
2023-04-17T08:19:59.249Z,101652.56
2023-04-17T08:22:26.287Z,101652.56
2023-04-17T08:24:58.102Z,101665.16
2023-04-17T08:27:26.015Z,101660.78
2023-04-17T08:29:53.823Z,101655.56
2023-04-17T08:32:21.600Z,101663.88
2023-04-17T08:34:48.491Z,101674.19
2023-04-17T08:37:15.741Z,101675.19
2023-04-17T08:39:42.600Z,101677.75
2023-04-17T08:42:15.402Z,101677.56
2023-04-17T08:44:45.161Z,101680.63
2023-04-17T08:47:13.007Z,101679.72
2023-04-17T08:49:43.916Z,101673.25
2023-04-17T08:52:11.524Z,101677.34
2023-04-17T08:54:39.159Z,101682.56
2023-04-17T08:57:06.376Z,101682.84
2023-04-17T08:59:33.515Z,101678.66
2023-04-17T09:02:05.028Z,101685.66
2023-04-17T09:04:38.042Z,101682.03
2023-04-17T09:07:06.803Z,101687.38
2023-04-17T09:09:53.421Z,101686.00
2023-04-17T09:12:22.134Z,101689.59
2023-04-17T09:14:49.191Z,101693.50
2023-04-17T09:17:20.555Z,101689.97
2023-04-17T09:20:13.997Z,101697.72
2023-04-17T09:22:41.107Z,101689.47
2023-04-17T09:25:19.451Z,101691.22
2023-04-17T09:27:47.060Z,101690.72
2023-04-17T09:30:14.092Z,101699.84
2023-04-17T09:32:41.194Z,101700.91
2023-04-17T09:35:08.467Z,101700.16
2023-04-17T09:37:52.879Z,101706.13
2023-04-17T09:40:21.509Z,101702.44
2023-04-17T09:43:02.449Z,101710.81
2023-04-17T09:45:39.463Z,101705.88
2023-04-17T09:48:08.934Z,101693.19
2023-04-17T09:50:37.290Z,101709.97
2023-04-17T09:53:06.872Z,101699.38
2023-04-17T09:55:34.937Z,101714.38
2023-04-17T09:58:03.784Z,101700.34
2023-04-17T10:00:31.246Z,101709.00
2023-04-17T10:02:59.540Z,101714.78
2023-04-17T10:05:29.349Z,101704.94
2023-04-17T10:07:57.113Z,101707.50
2023-04-17T10:10:32.548Z,101710.13
2023-04-17T10:13:01.096Z,101695.88
2023-04-17T10:15:28.705Z,101695.28
2023-04-17T10:17:58.568Z,101693.53
2023-04-17T10:20:25.396Z,101701.56
2023-04-17T10:22:56.420Z,101686.34
2023-04-17T10:25:27.939Z,101691.09
2023-04-17T10:28:00.632Z,101681.63
2023-04-17T10:30:54.745Z,101687.50
2023-04-17T10:33:25.010Z,101696.91
2023-04-17T10:35:52.442Z,101689.47
2023-04-17T10:38:33.435Z,101687.34
2023-04-17T10:41:03.041Z,101696.50
2023-04-17T10:43:29.831Z,101684.28
2023-04-17T10:46:11.449Z,101695.97
2023-04-17T10:48:50.770Z,101688.78
2023-04-17T10:51:29.478Z,101687.22
2023-04-17T10:53:58.105Z,101702.03
2023-04-17T10:56:27.897Z,101689.16
2023-04-17T10:59:19.038Z,101687.63
2023-04-17T11:01:49.069Z,101693.00
2023-04-17T11:04:28.575Z,101693.97
2023-04-17T11:06:55.991Z,101691.41
2023-04-17T11:09:24.687Z,101692.22
2023-04-17T11:11:51.481Z,101694.53
2023-04-17T11:14:19.742Z,101692.22
2023-04-17T11:16:48.836Z,101690.16
2023-04-17T11:19:20.270Z,101696.81
2023-04-17T11:21:54.868Z,101690.66
2023-04-17T11:24:26.898Z,101706.97
2023-04-17T11:26:54.456Z,101705.13
2023-04-17T11:29:22.244Z,101707.09
2023-04-17T11:31:52.101Z,101711.22
2023-04-17T11:34:19.474Z,101714.59
2023-04-17T11:36:54.391Z,101714.13
2023-04-17T11:39:23.532Z,101710.63
2023-04-17T11:41:51.702Z,101723.81
2023-04-17T11:44:20.734Z,101723.53
2023-04-17T11:46:54.222Z,101722.06
2023-04-17T11:49:39.791Z,101734.91
2023-04-17T11:52:06.719Z,101734.97
2023-04-17T11:54:38.091Z,101728.13
2023-04-17T11:57:06.918Z,101730.38
2023-04-17T11:59:35.456Z,101736.50
2023-04-17T12:02:03.166Z,101733.59
2023-04-17T12:04:34.318Z,101737.75
2023-04-17T12:07:06.041Z,101733.53
2023-04-17T12:09:36.234Z,101735.44
2023-04-17T12:12:07.343Z,101739.28
2023-04-17T12:14:34.493Z,101738.25
2023-04-17T12:17:01.423Z,101735.81
2023-04-17T12:19:29.905Z,101738.97
2023-04-17T12:21:57.632Z,101738.22
2023-04-17T12:24:26.385Z,101740.88
2023-04-17T12:26:53.562Z,101740.94
2023-04-17T12:29:29.593Z,101743.28
2023-04-17T12:32:07.886Z,101736.88
2023-04-17T12:34:34.806Z,101745.38
2023-04-17T12:37:01.594Z,101740.31
2023-04-17T12:39:28.405Z,101734.41
2023-04-17T12:41:55.208Z,101734.22
2023-04-17T12:44:22.017Z,101742.09
2023-04-17T12:46:48.792Z,101733.53
2023-04-17T12:49:15.939Z,101730.19
2023-04-17T12:51:42.780Z,101741.53
2023-04-17T12:54:09.574Z,101737.03
2023-04-17T12:56:36.520Z,101741.97
2023-04-17T12:59:03.453Z,101735.06
2023-04-17T13:01:30.353Z,101731.44
2023-04-17T13:03:57.567Z,101740.78
2023-04-17T13:06:24.537Z,101732.75
2023-04-17T13:08:51.319Z,101736.78
2023-04-17T13:11:18.134Z,101736.28
2023-04-17T13:13:45.311Z,101738.44
2023-04-17T13:16:12.200Z,101740.09
2023-04-17T13:18:39.033Z,101743.50
2023-04-17T13:21:06.772Z,101740.94
2023-04-17T13:23:33.575Z,101749.59
2023-04-17T13:26:00.378Z,101752.72
2023-04-17T13:28:27.173Z,101755.50
2023-04-17T13:30:53.968Z,101750.00
2023-04-17T13:33:20.852Z,101750.97
2023-04-17T13:35:47.961Z,101749.59
2023-04-17T13:38:14.765Z,101753.69
2023-04-17T13:40:41.595Z,101753.47
2023-04-17T13:43:09.332Z,101755.31
2023-04-17T13:45:36.292Z,101752.78
2023-04-17T13:48:03.233Z,101746.44
2023-04-17T13:50:30.055Z,101751.72
2023-04-17T13:53:00.197Z,101756.00
2023-04-17T13:55:27.027Z,101753.22
2023-04-17T13:57:54.402Z,101753.44
2023-04-17T14:00:23.926Z,101745.84
2023-04-17T14:02:51.055Z,101746.97
2023-04-17T14:05:18.363Z,101749.06
2023-04-17T14:07:45.386Z,101753.50
2023-04-17T14:10:12.350Z,101749.38
2023-04-17T14:12:39.168Z,101752.41
2023-04-17T14:15:07.561Z,101754.13
2023-04-17T14:17:38.244Z,101748.03
2023-04-17T14:20:08.138Z,101748.13
2023-04-17T14:22:34.940Z,101747.34
2023-04-17T14:25:01.756Z,101747.34
2023-04-17T14:27:28.674Z,101751.72
2023-04-17T14:29:55.526Z,101745.09
2023-04-17T14:32:22.345Z,101751.47
2023-04-17T14:34:49.167Z,101751.59
2023-04-17T14:37:15.930Z,101756.06
2023-04-17T14:39:42.712Z,101753.84
2023-04-17T14:42:09.492Z,101751.25
2023-04-17T14:44:36.260Z,101753.22
2023-04-17T14:47:03.319Z,101749.78
2023-04-17T14:49:30.550Z,101754.19
2023-04-17T14:51:57.321Z,101755.38
2023-04-17T14:54:24.215Z,101759.41
2023-04-17T14:56:51.123Z,101763.56
2023-04-17T14:59:18.082Z,101759.94
2023-04-17T15:01:44.948Z,101757.81
2023-04-17T15:04:12.065Z,101764.00
2023-04-17T15:06:39.382Z,101759.75
2023-04-17T15:09:06.666Z,101765.94
2023-04-17T15:11:33.470Z,101758.28
2023-04-17T15:14:00.464Z,101756.97
2023-04-17T15:16:27.386Z,101760.66
2023-04-17T15:18:54.295Z,101756.00
2023-04-17T15:21:21.100Z,101753.25
2023-04-17T15:23:47.902Z,101751.38
2023-04-17T15:26:17.195Z,101756.31
2023-04-17T15:28:43.994Z,101756.78
2023-04-17T15:31:10.807Z,101751.53
2023-04-17T15:33:37.918Z,101755.25
2023-04-17T15:36:05.287Z,101754.13
2023-04-17T15:38:32.584Z,101751.53
2023-04-17T15:40:59.790Z,101756.78
2023-04-17T15:43:27.430Z,101758.25
2023-04-17T15:45:54.901Z,101754.59
2023-04-17T15:48:21.717Z,101754.75
2023-04-17T15:50:48.537Z,101759.75
2023-04-17T15:53:15.663Z,101756.13
2023-04-17T15:55:42.460Z,101758.84
2023-04-17T15:58:09.245Z,101757.94
2023-04-17T16:00:36.057Z,101761.44
2023-04-17T16:03:02.979Z,101759.03
2023-04-17T16:05:30.596Z,101761.56
2023-04-17T16:07:57.634Z,101757.13
2023-04-17T16:10:24.617Z,101763.22
2023-04-17T16:12:51.430Z,101756.97
2023-04-17T16:15:18.307Z,101766.72
2023-04-17T16:17:49.083Z,101767.34
2023-04-17T16:20:16.071Z,101761.88
2023-04-17T16:22:42.900Z,101767.31
2023-04-17T16:25:12.341Z,101760.84
2023-04-17T16:27:40.499Z,101764.66
2023-04-17T16:30:08.956Z,101763.69
2023-04-17T16:32:35.915Z,101763.13
2023-04-17T16:35:02.829Z,101764.16
2023-04-17T16:37:29.686Z,101767.69
2023-04-17T16:39:56.529Z,101763.19
2023-04-17T16:42:24.358Z,101768.41
2023-04-17T16:44:51.248Z,101769.66
2023-04-17T16:47:18.186Z,101777.28
2023-04-17T16:49:45.005Z,101776.47
2023-04-17T16:52:11.791Z,101768.63
2023-04-17T16:54:38.655Z,101778.03
2023-04-17T16:57:06.143Z,101772.91
2023-04-17T16:59:33.118Z,101768.41
2023-04-17T17:02:02.611Z,101773.69
2023-04-17T17:04:30.158Z,101776.34
2023-04-17T17:06:57.702Z,101775.63
2023-04-17T17:09:26.109Z,101775.44
2023-04-17T17:11:53.163Z,101779.94
2023-04-17T17:14:20.547Z,101777.97
2023-04-17T17:16:47.401Z,101781.94
2023-04-17T17:19:15.114Z,101774.31
2023-04-17T17:21:42.122Z,101783.22
2023-04-17T17:24:08.942Z,101785.69
2023-04-17T17:26:37.222Z,101786.56
2023-04-17T17:29:04.356Z,101789.22
2023-04-17T17:31:33.236Z,101795.00
2023-04-17T17:34:12.028Z,101796.97
2023-04-17T17:36:49.361Z,101800.09
2023-04-17T17:39:16.726Z,101793.97
2023-04-17T17:41:45.832Z,101789.34
2023-04-17T17:44:13.645Z,101805.22
2023-04-17T17:46:40.729Z,101793.81
2023-04-17T17:49:07.484Z,101801.06
2023-04-17T17:51:34.323Z,101807.09
2023-04-17T17:54:01.217Z,101802.06
2023-04-17T17:56:28.702Z,101805.75
2023-04-17T17:58:55.578Z,101803.41
2023-04-17T18:01:24.946Z,101804.13
2023-04-17T18:03:53.555Z,101809.31
2023-04-17T18:06:21.205Z,101811.16
2023-04-17T18:08:48.254Z,101809.44
2023-04-17T18:11:15.344Z,101813.75
2023-04-17T18:13:42.132Z,101814.72
2023-04-17T18:16:09.027Z,101806.97
2023-04-17T18:18:36.124Z,101802.81
2023-04-17T18:21:07.335Z,101806.88
2023-04-17T18:23:34.206Z,101809.59
2023-04-17T18:26:02.877Z,101809.53
2023-04-17T18:28:29.798Z,101817.53
2023-04-17T18:30:56.612Z,101810.38
2023-04-17T18:33:23.486Z,101815.91
2023-04-17T18:35:50.634Z,101818.03
2023-04-17T18:38:17.428Z,101819.56
2023-04-17T18:40:44.226Z,101823.78
2023-04-17T18:43:11.041Z,101831.59
2023-04-17T18:45:37.826Z,101827.94
2023-04-17T18:48:04.847Z,101836.94
2023-04-17T18:50:31.635Z,101828.13
2023-04-17T18:52:58.390Z,101832.72
2023-04-17T18:55:25.262Z,101839.44
2023-04-17T18:57:52.102Z,101835.97
2023-04-17T19:00:18.953Z,101841.16
2023-04-17T19:02:45.906Z,101841.28
2023-04-17T19:05:12.921Z,101844.44
2023-04-17T19:07:39.735Z,101840.22
2023-04-17T19:10:07.173Z,101841.03
2023-04-17T19:12:33.978Z,101836.31
2023-04-17T19:15:00.738Z,101830.16
2023-04-17T19:17:27.570Z,101839.03
2023-04-17T19:19:54.354Z,101843.59
2023-04-17T19:22:21.222Z,101837.50
2023-04-17T19:24:50.237Z,101843.75
2023-04-17T19:27:17.102Z,101839.31
2023-04-17T19:29:43.888Z,101840.22
2023-04-17T19:32:11.399Z,101840.84
2023-04-17T19:34:38.743Z,101840.22
2023-04-17T19:37:05.534Z,101839.47
2023-04-17T19:39:32.368Z,101836.63
2023-04-17T19:41:59.259Z,101833.97
2023-04-17T19:44:28.047Z,101842.66
2023-04-17T19:46:55.692Z,101839.38
2023-04-17T19:49:22.435Z,101834.19
2023-04-17T19:51:49.265Z,101837.81
2023-04-17T19:54:16.112Z,101837.69
2023-04-17T19:56:42.946Z,101835.06
2023-04-17T19:59:12.717Z,101830.69
2023-04-17T20:01:42.100Z,101835.06
2023-04-17T20:04:10.482Z,101836.84
2023-04-17T20:06:37.363Z,101835.81
2023-04-17T20:09:04.914Z,101833.44
2023-04-17T20:11:31.719Z,101843.72
2023-04-17T20:13:58.475Z,101835.16
2023-04-17T20:16:25.357Z,101836.88
2023-04-17T20:18:52.183Z,101832.59
2023-04-17T20:21:19.084Z,101844.13
2023-04-17T20:23:47.828Z,101833.44
2023-04-17T20:26:15.199Z,101831.75
2023-04-17T20:28:42.265Z,101831.91
2023-04-17T20:31:09.142Z,101827.59
2023-04-17T20:33:36.008Z,101834.50
2023-04-17T20:36:03.306Z,101831.75
2023-04-17T20:38:30.116Z,101822.22
2023-04-17T20:40:56.991Z,101833.66
2023-04-17T20:43:23.737Z,101839.09
2023-04-17T20:45:50.702Z,101827.63
2023-04-17T20:48:17.609Z,101831.84
2023-04-17T20:50:44.596Z,101824.13
2023-04-17T20:53:11.411Z,101830.22
2023-04-17T20:55:38.377Z,101832.28
2023-04-17T20:58:05.188Z,101827.69
2023-04-17T21:00:32.756Z,101829.50
2023-04-17T21:02:59.611Z,101833.06
2023-04-17T21:05:27.043Z,101836.72
2023-04-17T21:07:54.659Z,101824.47
2023-04-17T21:10:21.654Z,101831.50
2023-04-17T21:12:48.485Z,101833.19
2023-04-17T21:15:15.313Z,101841.22
2023-04-17T21:17:46.854Z,101843.91
2023-04-17T21:20:14.032Z,101837.03
2023-04-17T21:22:40.961Z,101848.44
2023-04-17T21:25:08.263Z,101839.69
2023-04-17T21:27:35.029Z,101844.19
2023-04-17T21:30:01.854Z,101843.38
2023-04-17T21:32:28.643Z,101843.34
2023-04-17T21:34:55.422Z,101850.66
2023-04-17T21:37:22.177Z,101843.59
2023-04-17T21:39:49.018Z,101846.41
2023-04-17T21:42:17.035Z,101858.13
2023-04-17T21:44:43.785Z,101859.84
2023-04-17T21:47:10.851Z,101855.59
2023-04-17T21:49:37.611Z,101849.53
2023-04-17T21:52:04.437Z,101847.78
2023-04-17T21:54:31.182Z,101862.91
2023-04-17T21:56:57.954Z,101857.75
2023-04-17T21:59:25.123Z,101853.34
2023-04-17T22:01:52.382Z,101863.91
2023-04-17T22:04:19.237Z,101862.31
2023-04-17T22:06:46.098Z,101858.81
2023-04-17T22:09:12.848Z,101865.00
2023-04-17T22:11:39.889Z,101869.53
2023-04-17T22:14:06.979Z,101867.88
2023-04-17T22:16:33.798Z,101863.53
2023-04-17T22:19:00.656Z,101868.72
2023-04-17T22:21:27.524Z,101867.84
2023-04-17T22:23:54.333Z,101870.47
2023-04-17T22:26:21.446Z,101874.09
2023-04-17T22:28:48.345Z,101881.19
2023-04-17T22:31:15.841Z,101881.31
2023-04-17T22:33:43.427Z,101878.75
2023-04-17T22:36:10.301Z,101870.94
2023-04-17T22:38:37.202Z,101879.72
2023-04-17T22:41:04.616Z,101875.44
2023-04-17T22:43:31.373Z,101875.44
2023-04-17T22:45:58.213Z,101885.03
2023-04-17T22:48:25.037Z,101888.59
2023-04-17T22:50:51.838Z,101890.47
2023-04-17T22:53:18.955Z,101882.56
2023-04-17T22:55:45.804Z,101884.38
2023-04-17T22:58:12.632Z,101880.94
2023-04-17T23:00:39.405Z,101881.75
2023-04-17T23:03:06.272Z,101882.69
2023-04-17T23:05:33.226Z,101888.09
2023-04-17T23:08:00.031Z,101889.03
2023-04-17T23:10:26.811Z,101895.13
2023-04-17T23:12:53.634Z,101885.53
2023-04-17T23:15:21.294Z,101885.63
2023-04-17T23:17:48.160Z,101889.25
2023-04-17T23:20:15.155Z,101891.09
2023-04-17T23:22:42.054Z,101894.56
2023-04-17T23:25:09.507Z,101889.38
2023-04-17T23:27:36.649Z,101890.06
2023-04-17T23:30:03.754Z,101888.41
2023-04-17T23:32:31.192Z,101885.84
2023-04-17T23:34:58.073Z,101889.28
2023-04-17T23:37:25.497Z,101881.47
2023-04-17T23:39:52.410Z,101888.41
2023-04-17T23:42:19.326Z,101896.41
2023-04-17T23:44:46.204Z,101884.91
2023-04-17T23:47:13.410Z,101892.84
2023-04-17T23:49:40.199Z,101888.69
2023-04-17T23:52:07.267Z,101891.38
2023-04-17T23:54:34.036Z,101887.75
2023-04-17T23:57:01.481Z,101890.38
2023-04-17T23:59:28.294Z,101893.91
